CheckWX is a tool to help pilots better visualize weather data.  It is not intended as a substitute for an official pre-flight weather briefing.

02:51:04 UTC

KFVX METAR
Farmville Regional Airport
Farmville, Virginia, USA
Current

16 mins ago

KFVX 230235Z AUTO 20005KT 10SM CLR 25/17 A3007 RMK AO2 T02460172
Observed
Sep-23 @ 02:35 UTC
Wind
  • 200° at 5 KTS
Visibility
10 SM
Flight Rules
VFR
Cloud Levels
  • Clear skies
Temperature
25°C / 77°F
Dewpoint
17°C / 63°F
Humidity
61%
Altimeter
30.07" Hg
Pressure
1018.32 hPa
Previous

36 mins ago

KFVX 230215Z AUTO 20005KT 10SM CLR 25/17 A3007 RMK AO2 T02460172
Observed
Sep-23 @ 02:15 UTC
Wind
  • 200° at 5 KTS
Visibility
10 SM
Flight Rules
VFR
Cloud Levels
  • Clear skies
Temperature
25°C / 77°F
Dewpoint
17°C / 63°F
Humidity
61%
Altimeter
30.07" Hg
Pressure
1018.32 hPa
Previous

56 mins ago

KFVX 230155Z AUTO 19006KT 10SM CLR 25/17 A3007 RMK AO2 T02480172
Observed
Sep-23 @ 01:55 UTC
Wind
  • 190° at 6 KTS
Visibility
10 SM
Flight Rules
VFR
Cloud Levels
  • Clear skies
Temperature
25°C / 77°F
Dewpoint
17°C / 63°F
Humidity
61%
Altimeter
30.07" Hg
Pressure
1018.32 hPa